createdAt,value
2022-08-01T00:02:01.852Z,17.89
2022-08-01T00:04:30.059Z,17.89
2022-08-01T00:06:58.247Z,17.90
2022-08-01T00:09:26.439Z,17.93
2022-08-01T00:11:59.813Z,17.94
2022-08-01T00:14:34.582Z,17.91
2022-08-01T00:17:07.231Z,17.89
2022-08-01T00:19:36.078Z,17.87
2022-08-01T00:22:04.694Z,17.88
2022-08-01T00:24:34.499Z,17.86
2022-08-01T00:27:02.626Z,17.87
2022-08-01T00:30:09.974Z,17.88
2022-08-01T00:32:19.494Z,17.88
2022-08-01T00:34:47.681Z,17.89
2022-08-01T00:37:18.156Z,17.88
2022-08-01T00:39:46.300Z,17.87
2022-08-01T00:42:14.485Z,17.83
2022-08-01T00:44:42.875Z,17.80
2022-08-01T00:47:11.026Z,17.80
2022-08-01T00:49:39.603Z,17.79
2022-08-01T00:52:09.635Z,17.80
2022-08-01T00:54:37.965Z,17.82
2022-08-01T00:57:09.986Z,17.85
2022-08-01T00:59:41.475Z,17.87
2022-08-01T01:02:14.743Z,17.87
2022-08-01T01:04:44.173Z,17.86
2022-08-01T01:07:30.434Z,17.84
2022-08-01T01:10:16.584Z,17.85
2022-08-01T01:13:02.554Z,17.86
2022-08-01T01:16:05.773Z,17.85
2022-08-01T01:18:33.873Z,17.85
2022-08-01T01:21:19.239Z,17.80
2022-08-01T01:24:22.482Z,17.75
2022-08-01T01:27:08.046Z,17.69
2022-08-01T01:30:01.121Z,17.70
2022-08-01T01:32:42.938Z,17.69
2022-08-01T01:35:27.270Z,17.64
2022-08-01T01:38:08.748Z,17.62
2022-08-01T01:40:39.432Z,17.59
2022-08-01T01:43:12.625Z,17.57
2022-08-01T01:45:42.520Z,17.54
2022-08-01T01:48:14.114Z,17.53
2022-08-01T01:50:44.008Z,17.57
2022-08-01T01:53:15.565Z,17.58
2022-08-01T01:55:49.787Z,17.54
2022-08-01T01:58:19.370Z,17.50
2022-08-01T02:00:50.414Z,17.45
2022-08-01T02:03:21.988Z,17.44
2022-08-01T02:05:53.093Z,17.45
2022-08-01T02:08:22.527Z,17.47
2022-08-01T02:11:13.645Z,17.48
2022-08-01T02:13:43.824Z,17.48
2022-08-01T02:16:13.365Z,17.48
2022-08-01T02:18:42.940Z,17.47
2022-08-01T02:21:15.040Z,17.47
2022-08-01T02:23:45.544Z,17.46
2022-08-01T02:26:18.720Z,17.43
2022-08-01T02:29:08.075Z,17.41
2022-08-01T02:31:41.091Z,17.42
2022-08-01T02:34:14.224Z,17.39
2022-08-01T02:36:45.703Z,17.36
2022-08-01T02:39:17.486Z,17.36
2022-08-01T02:41:49.976Z,17.35
2022-08-01T02:44:34.014Z,17.34
2022-08-01T02:47:03.720Z,17.31
2022-08-01T02:49:39.148Z,17.23
2022-08-01T02:52:10.014Z,17.20
2022-08-01T02:54:39.715Z,17.18
2022-08-01T02:57:09.963Z,17.18
2022-08-01T02:59:43.724Z,17.17
2022-08-01T03:02:15.198Z,17.18
2022-08-01T03:04:44.726Z,17.15
2022-08-01T03:07:15.005Z,17.13
2022-08-01T03:09:46.066Z,17.14
2022-08-01T03:12:22.229Z,17.16
2022-08-01T03:14:55.518Z,17.14
2022-08-01T03:17:26.551Z,17.11
2022-08-01T03:19:59.082Z,17.09
2022-08-01T03:22:30.506Z,17.08
2022-08-01T03:25:00.936Z,17.08
2022-08-01T03:27:29.822Z,17.07
2022-08-01T03:29:59.451Z,17.08
2022-08-01T03:32:29.522Z,17.06
2022-08-01T03:34:58.781Z,17.04
2022-08-01T03:38:14.295Z,17.03
2022-08-01T03:40:41.080Z,17.04
2022-08-01T03:43:17.093Z,17.04
2022-08-01T03:45:51.784Z,17.01
2022-08-01T03:48:29.134Z,17.00
2022-08-01T03:50:59.617Z,17.04
2022-08-01T03:53:31.803Z,17.06
2022-08-01T03:56:04.907Z,17.11
2022-08-01T03:58:34.269Z,17.13
2022-08-01T04:01:03.161Z,17.13
2022-08-01T04:03:31.634Z,17.17
2022-08-01T04:06:00.411Z,17.22
2022-08-01T04:08:41.425Z,17.26
2022-08-01T04:11:11.073Z,17.28
2022-08-01T04:13:40.852Z,17.31
2022-08-01T04:16:12.802Z,17.37
2022-08-01T04:18:41.266Z,17.40
2022-08-01T04:21:09.505Z,17.47
2022-08-01T04:23:42.358Z,17.49
2022-08-01T04:26:12.186Z,17.49
2022-08-01T04:28:42.762Z,17.48
2022-08-01T04:31:13.806Z,17.47
2022-08-01T04:33:46.601Z,17.48
2022-08-01T04:36:16.305Z,17.51
2022-08-01T04:38:47.555Z,17.51
2022-08-01T04:41:16.880Z,17.53
2022-08-01T04:43:45.916Z,17.53
2022-08-01T04:46:16.033Z,17.52
2022-08-01T04:48:45.905Z,17.52
2022-08-01T04:51:16.495Z,17.53
2022-08-01T04:53:47.103Z,17.57
2022-08-01T04:56:15.983Z,17.60
2022-08-01T04:58:45.026Z,17.60
2022-08-01T05:01:13.663Z,17.64
2022-08-01T05:03:41.917Z,17.68
2022-08-01T05:06:10.199Z,17.72
2022-08-01T05:08:38.382Z,17.72
2022-08-01T05:11:06.647Z,17.69
2022-08-01T05:13:35.529Z,17.74
2022-08-01T05:16:04.751Z,17.78
2022-08-01T05:18:33.493Z,17.74
2022-08-01T05:21:03.109Z,17.72
2022-08-01T05:23:41.881Z,17.70
2022-08-01T05:26:14.688Z,17.68
2022-08-01T05:28:43.347Z,17.66
2022-08-01T05:31:11.821Z,17.63
2022-08-01T05:33:40.216Z,17.62
2022-08-01T05:36:08.455Z,17.63
2022-08-01T05:38:36.709Z,17.67
2022-08-01T05:41:04.995Z,17.69
2022-08-01T05:43:33.605Z,17.68
2022-08-01T05:46:02.657Z,17.71
2022-08-01T05:48:31.503Z,17.74
2022-08-01T05:50:59.751Z,17.69
2022-08-01T05:53:28.327Z,17.69
2022-08-01T05:55:57.007Z,17.74
2022-08-01T05:58:25.232Z,17.77
2022-08-01T06:00:53.379Z,17.80
2022-08-01T06:03:21.587Z,17.86
2022-08-01T06:05:49.925Z,17.89
2022-08-01T06:08:18.140Z,17.93
2022-08-01T06:10:46.357Z,17.93
2022-08-01T06:13:14.544Z,17.99
2022-08-01T06:15:42.890Z,18.07
2022-08-01T06:18:10.997Z,18.19
2022-08-01T06:20:39.207Z,18.30
2022-08-01T06:23:31.853Z,18.31
2022-08-01T06:25:56.019Z,18.37
2022-08-01T06:28:24.183Z,18.40
2022-08-01T06:30:52.502Z,18.49
2022-08-01T06:33:20.655Z,18.52
2022-08-01T06:35:48.913Z,18.57
2022-08-01T06:38:17.306Z,18.67
2022-08-01T06:40:45.405Z,18.76
2022-08-01T06:43:13.829Z,18.80
2022-08-01T06:45:42.608Z,18.85
2022-08-01T06:48:10.823Z,18.88
2022-08-01T06:50:39.037Z,18.91
2022-08-01T06:53:07.226Z,18.89
2022-08-01T06:55:35.420Z,18.89
2022-08-01T06:58:03.542Z,18.89
2022-08-01T07:00:31.947Z,18.97
2022-08-01T07:03:01.008Z,19.04
2022-08-01T07:05:32.108Z,19.11
2022-08-01T07:08:00.344Z,19.17
2022-08-01T07:10:28.690Z,19.17
2022-08-01T07:12:56.955Z,19.15
2022-08-01T07:15:27.629Z,19.13
2022-08-01T07:17:56.093Z,19.10
2022-08-01T07:20:24.789Z,19.02
2022-08-01T07:22:53.036Z,18.96
2022-08-01T07:25:21.235Z,18.91
2022-08-01T07:27:49.389Z,18.86
2022-08-01T07:30:17.521Z,18.85
2022-08-01T07:32:45.735Z,18.82
2022-08-01T07:35:14.284Z,18.79
2022-08-01T07:37:48.480Z,18.77
2022-08-01T07:40:19.280Z,18.77
2022-08-01T07:42:48.153Z,18.83
2022-08-01T07:45:16.761Z,18.87
2022-08-01T07:47:45.257Z,18.89
2022-08-01T07:50:13.928Z,18.88
2022-08-01T07:52:43.037Z,18.95
2022-08-01T07:55:16.257Z,19.05
2022-08-01T07:57:45.202Z,19.16
2022-08-01T08:00:14.450Z,19.26
2022-08-01T08:02:43.191Z,19.34
2022-08-01T08:05:13.382Z,19.41
2022-08-01T08:07:41.782Z,19.41
2022-08-01T08:10:10.574Z,19.44
2022-08-01T08:12:38.974Z,19.46
2022-08-01T08:15:07.567Z,19.51
2022-08-01T08:17:36.851Z,19.63
2022-08-01T08:20:09.597Z,19.78
2022-08-01T08:22:38.862Z,19.93
2022-08-01T08:25:08.470Z,20.05
2022-08-01T08:27:37.936Z,20.11
2022-08-01T08:30:08.848Z,20.19
2022-08-01T08:32:37.512Z,20.25
2022-08-01T08:35:07.004Z,20.30
2022-08-01T08:37:39.217Z,20.32
2022-08-01T08:40:17.267Z,20.30
2022-08-01T08:42:47.599Z,20.37
2022-08-01T08:45:15.815Z,20.55
2022-08-01T08:47:45.063Z,20.66
2022-08-01T08:50:13.712Z,20.75
2022-08-01T08:52:43.545Z,20.87
2022-08-01T08:55:15.684Z,21.01
2022-08-01T08:57:45.897Z,21.03
2022-08-01T09:00:15.447Z,20.98
2022-08-01T09:02:45.091Z,20.91
2022-08-01T09:05:18.941Z,20.95
2022-08-01T09:07:48.198Z,21.03
2022-08-01T09:10:16.474Z,21.07
2022-08-01T09:13:05.399Z,21.17
2022-08-01T09:15:43.829Z,21.28
2022-08-01T09:18:35.652Z,21.36
2022-08-01T09:21:25.139Z,21.54
2022-08-01T09:23:56.008Z,21.80
2022-08-01T09:26:36.371Z,21.98
2022-08-01T09:29:07.447Z,21.97
2022-08-01T09:31:47.317Z,21.91
2022-08-01T09:34:19.956Z,21.89
2022-08-01T09:36:54.129Z,21.83
2022-08-01T09:39:29.820Z,21.93
2022-08-01T09:42:01.111Z,21.95
2022-08-01T09:44:55.111Z,22.06
2022-08-01T09:47:38.783Z,22.17
2022-08-01T09:50:11.001Z,22.23
2022-08-01T09:52:41.247Z,22.23
2022-08-01T09:55:10.952Z,22.15
2022-08-01T09:57:39.856Z,22.06
2022-08-01T10:00:35.735Z,22.00
2022-08-01T10:03:25.072Z,22.04
2022-08-01T10:05:54.758Z,22.05
2022-08-01T10:08:24.390Z,22.09
2022-08-01T10:11:12.586Z,22.22
2022-08-01T10:13:41.482Z,22.44
2022-08-01T10:16:11.275Z,22.75
2022-08-01T10:18:43.659Z,22.91
2022-08-01T10:21:12.852Z,23.06
2022-08-01T10:23:43.538Z,23.12
2022-08-01T10:26:15.055Z,23.42
2022-08-01T10:28:46.022Z,23.83
2022-08-01T10:31:15.055Z,24.04
2022-08-01T10:33:50.426Z,24.40
2022-08-01T10:36:22.544Z,24.96
2022-08-01T10:38:52.450Z,24.98
2022-08-01T10:41:22.857Z,25.32
2022-08-01T10:43:52.709Z,26.02
2022-08-01T10:46:21.208Z,27.24
2022-08-01T10:49:04.126Z,28.24
2022-08-01T10:51:52.448Z,28.92
2022-08-01T10:54:26.822Z,28.95
2022-08-01T10:57:00.805Z,28.90
2022-08-01T10:59:49.651Z,28.69
2022-08-01T11:02:32.213Z,28.58
2022-08-01T11:05:14.240Z,28.78
2022-08-01T11:07:55.400Z,28.82
2022-08-01T11:10:46.751Z,28.60
2022-08-01T11:13:15.523Z,28.38
2022-08-01T11:15:49.983Z,28.10
2022-08-01T11:18:30.833Z,27.84
2022-08-01T11:21:57.589Z,27.41
2022-08-01T11:23:54.560Z,27.19
2022-08-01T11:26:28.908Z,26.78
2022-08-01T11:29:27.391Z,26.35
2022-08-01T11:32:24.889Z,26.06
2022-08-01T11:34:56.576Z,25.76
2022-08-01T11:37:30.396Z,25.86
2022-08-01T11:40:18.008Z,26.03
2022-08-01T11:42:46.890Z,26.27
2022-08-01T11:45:18.529Z,26.39
2022-08-01T11:47:50.603Z,26.42
2022-08-01T11:50:39.050Z,26.44
2022-08-01T11:53:09.003Z,26.28
2022-08-01T11:55:51.223Z,25.95
2022-08-01T11:58:27.500Z,25.89
2022-08-01T12:00:59.484Z,25.64
2022-08-01T12:03:34.171Z,25.60
2022-08-01T12:06:03.189Z,25.50
2022-08-01T12:08:37.628Z,25.59
2022-08-01T12:11:07.165Z,25.75
2022-08-01T12:13:44.374Z,26.07
2022-08-01T12:16:13.725Z,26.25
2022-08-01T12:18:43.544Z,26.25
2022-08-01T12:21:11.670Z,25.97
2022-08-01T12:23:39.918Z,25.79
2022-08-01T12:26:08.147Z,25.62
2022-08-01T12:28:42.238Z,25.41
2022-08-01T12:31:10.580Z,25.17
2022-08-01T12:33:41.165Z,25.00
2022-08-01T12:36:09.562Z,24.76
2022-08-01T12:38:43.026Z,24.53
2022-08-01T12:41:12.407Z,24.28
2022-08-01T12:43:41.395Z,24.09
2022-08-01T12:46:12.690Z,23.92
2022-08-01T12:48:40.985Z,23.74
2022-08-01T12:51:10.882Z,23.66
2022-08-01T12:53:40.476Z,23.68
2022-08-01T12:56:12.137Z,23.74
2022-08-01T12:58:40.624Z,23.83
2022-08-01T13:01:13.177Z,23.91
2022-08-01T13:03:42.062Z,23.99
2022-08-01T13:06:17.204Z,24.03
2022-08-01T13:08:47.170Z,24.01
2022-08-01T13:11:18.218Z,24.06
2022-08-01T13:13:52.246Z,24.11
2022-08-01T13:16:30.356Z,24.05
2022-08-01T13:19:03.235Z,24.02
2022-08-01T13:21:53.325Z,24.05
2022-08-01T13:24:29.284Z,24.09
2022-08-01T13:27:01.710Z,24.06
2022-08-01T13:29:42.627Z,23.97
2022-08-01T13:32:29.316Z,23.95
2022-08-01T13:35:07.118Z,23.86
2022-08-01T13:37:38.899Z,23.80
2022-08-01T13:40:09.058Z,23.76
2022-08-01T13:42:37.925Z,23.60
2022-08-01T13:45:14.552Z,23.44
2022-08-01T13:48:11.767Z,23.38
2022-08-01T13:50:32.940Z,23.31
2022-08-01T13:53:01.433Z,23.21
2022-08-01T13:55:34.597Z,23.12
2022-08-01T13:58:04.031Z,23.06
2022-08-01T14:00:32.497Z,23.00
2022-08-01T14:03:00.657Z,22.97
2022-08-01T14:05:28.957Z,22.95
2022-08-01T14:07:57.082Z,22.87
2022-08-01T14:10:25.771Z,22.80
2022-08-01T14:12:56.844Z,22.76
2022-08-01T14:15:37.963Z,22.76
2022-08-01T14:18:10.540Z,22.78
2022-08-01T14:20:40.376Z,22.76
2022-08-01T14:23:09.560Z,22.66
2022-08-01T14:26:03.788Z,22.53
2022-08-01T14:28:29.313Z,22.43
2022-08-01T14:30:59.126Z,22.36
2022-08-01T14:33:27.785Z,22.35
2022-08-01T14:36:06.026Z,22.30
2022-08-01T14:38:46.427Z,22.25
2022-08-01T14:41:16.279Z,22.24
2022-08-01T14:43:44.831Z,22.27
2022-08-01T14:46:13.834Z,22.23
2022-08-01T14:48:42.230Z,22.26
2022-08-01T14:51:10.638Z,22.25
2022-08-01T14:53:41.548Z,22.29
2022-08-01T14:56:15.463Z,22.22
2022-08-01T14:58:43.615Z,22.25
2022-08-01T15:01:11.864Z,22.31
2022-08-01T15:03:40.098Z,22.37
2022-08-01T15:06:10.794Z,22.42
2022-08-01T15:08:39.232Z,22.43
2022-08-01T15:11:07.581Z,22.40
2022-08-01T15:13:39.280Z,22.36
2022-08-01T15:16:12.070Z,22.31
2022-08-01T15:18:40.628Z,22.22
2022-08-01T15:21:14.402Z,22.17
2022-08-01T15:23:48.940Z,22.15
2022-08-01T15:26:17.733Z,22.09
2022-08-01T15:28:46.025Z,22.00
2022-08-01T15:31:14.482Z,21.95
2022-08-01T15:33:42.749Z,21.95
2022-08-01T15:36:12.391Z,21.92
2022-08-01T15:38:43.744Z,21.98
2022-08-01T15:41:12.103Z,22.03
2022-08-01T15:43:44.208Z,22.09
2022-08-01T15:46:13.343Z,22.08
2022-08-01T15:48:42.029Z,22.06
2022-08-01T15:51:10.531Z,22.00
2022-08-01T15:53:38.696Z,21.95
2022-08-01T15:56:07.150Z,21.82
2022-08-01T15:58:35.695Z,21.74
2022-08-01T16:01:04.266Z,21.70
2022-08-01T16:03:32.472Z,21.65
2022-08-01T16:06:00.676Z,21.64
2022-08-01T16:08:28.758Z,21.58
2022-08-01T16:10:56.962Z,21.54
2022-08-01T16:13:25.190Z,21.53
2022-08-01T16:15:53.321Z,21.54
2022-08-01T16:18:21.487Z,21.54
2022-08-01T16:20:49.564Z,21.52
2022-08-01T16:23:17.946Z,21.51
2022-08-01T16:25:46.219Z,21.46
2022-08-01T16:28:14.647Z,21.45
2022-08-01T16:30:52.030Z,21.50
2022-08-01T16:33:42.883Z,21.56
2022-08-01T16:36:23.382Z,21.54
2022-08-01T16:38:53.223Z,21.51
2022-08-01T16:41:21.736Z,21.48
2022-08-01T16:43:53.113Z,21.44
2022-08-01T16:46:25.446Z,21.39
2022-08-01T16:48:54.734Z,21.32
2022-08-01T16:51:23.210Z,21.22
2022-08-01T16:53:51.692Z,21.14
2022-08-01T16:56:20.804Z,21.05
2022-08-01T16:58:49.162Z,20.92
2022-08-01T17:02:00.075Z,20.81
2022-08-01T17:04:08.783Z,20.70
2022-08-01T17:06:37.173Z,20.64
2022-08-01T17:09:05.468Z,20.57
2022-08-01T17:11:33.753Z,20.50
2022-08-01T17:14:02.091Z,20.42
2022-08-01T17:16:32.713Z,20.34
2022-08-01T17:19:02.109Z,20.24
2022-08-01T17:21:30.608Z,20.20
2022-08-01T17:23:58.672Z,20.19
2022-08-01T17:26:26.860Z,20.15
2022-08-01T17:28:55.039Z,20.12
2022-08-01T17:31:23.365Z,20.09
2022-08-01T17:33:54.773Z,20.04
2022-08-01T17:36:23.686Z,19.97
2022-08-01T17:38:51.846Z,19.92
2022-08-01T17:41:20.008Z,19.83
2022-08-01T17:43:48.281Z,19.73
2022-08-01T17:46:17.221Z,19.65
2022-08-01T17:48:46.828Z,19.57
2022-08-01T17:51:19.355Z,19.51
2022-08-01T17:53:55.490Z,19.48
2022-08-01T17:56:27.307Z,19.43
2022-08-01T17:58:55.967Z,19.37
2022-08-01T18:01:26.508Z,19.32
2022-08-01T18:03:57.646Z,19.27
2022-08-01T18:06:27.004Z,19.24
2022-08-01T18:08:56.589Z,19.20
2022-08-01T18:11:28.041Z,19.14
2022-08-01T18:13:59.455Z,19.07
2022-08-01T18:16:28.645Z,19.03
2022-08-01T18:18:56.871Z,19.01
2022-08-01T18:21:25.167Z,18.97
2022-08-01T18:23:53.501Z,18.95
2022-08-01T18:26:22.163Z,18.92
2022-08-01T18:28:50.575Z,18.89
2022-08-01T18:31:20.711Z,18.85
2022-08-01T18:33:49.216Z,18.80
2022-08-01T18:36:32.498Z,18.74
2022-08-01T18:39:06.500Z,18.71
2022-08-01T18:41:39.376Z,18.66
2022-08-01T18:44:08.887Z,18.62
2022-08-01T18:46:39.648Z,18.58
2022-08-01T18:49:10.996Z,18.55
2022-08-01T18:51:44.853Z,18.51
2022-08-01T18:54:17.083Z,18.44
2022-08-01T18:56:45.390Z,18.43
2022-08-01T18:59:14.234Z,18.42
2022-08-01T19:01:43.315Z,18.41
2022-08-01T19:04:13.435Z,18.32
2022-08-01T19:06:42.320Z,18.18
2022-08-01T19:09:10.764Z,18.11
2022-08-01T19:11:38.935Z,18.06
2022-08-01T19:14:07.231Z,18.04
2022-08-01T19:16:35.472Z,18.01
2022-08-01T19:19:05.504Z,17.97
2022-08-01T19:21:44.283Z,17.95
2022-08-01T19:24:23.009Z,17.92
2022-08-01T19:27:08.584Z,17.89
2022-08-01T19:29:39.009Z,17.84
2022-08-01T19:32:10.405Z,17.80
2022-08-01T19:35:11.258Z,17.80
2022-08-01T19:37:44.286Z,17.77
2022-08-01T19:40:27.484Z,17.77
2022-08-01T19:42:57.460Z,17.79
2022-08-01T19:45:29.567Z,17.77
2022-08-01T19:47:59.644Z,17.77
2022-08-01T19:50:29.387Z,17.76
2022-08-01T19:53:02.368Z,17.74
2022-08-01T19:55:34.229Z,17.75
2022-08-01T19:58:26.264Z,17.74
2022-08-01T20:00:55.131Z,17.69
2022-08-01T20:03:24.177Z,17.64
2022-08-01T20:05:52.795Z,17.62
2022-08-01T20:08:22.444Z,17.60
2022-08-01T20:10:51.696Z,17.58
2022-08-01T20:13:20.914Z,17.57
2022-08-01T20:15:49.162Z,17.55
2022-08-01T20:18:17.418Z,17.50
2022-08-01T20:20:47.249Z,17.46
2022-08-01T20:23:18.255Z,17.44
2022-08-01T20:25:51.335Z,17.43
2022-08-01T20:28:23.847Z,17.42
2022-08-01T20:31:01.116Z,17.41
2022-08-01T20:33:33.406Z,17.39
2022-08-01T20:36:02.385Z,17.32
2022-08-01T20:38:32.714Z,17.25
2022-08-01T20:41:03.588Z,17.24
2022-08-01T20:43:31.895Z,17.22
2022-08-01T20:46:00.687Z,17.21
2022-08-01T20:48:29.883Z,17.23
2022-08-01T20:51:14.645Z,17.20
2022-08-01T20:53:52.705Z,17.15
2022-08-01T20:56:32.782Z,17.13
2022-08-01T20:59:11.448Z,17.13
2022-08-01T21:02:18.139Z,17.12
2022-08-01T21:04:49.749Z,17.10
2022-08-01T21:07:25.552Z,17.07
2022-08-01T21:10:16.651Z,17.02
2022-08-01T21:12:53.943Z,16.97
2022-08-01T21:15:37.590Z,16.95
2022-08-01T21:18:17.954Z,16.94
2022-08-01T21:21:10.181Z,16.92
2022-08-01T21:23:50.875Z,16.90
2022-08-01T21:26:22.586Z,16.90
2022-08-01T21:28:54.774Z,16.89
2022-08-01T21:31:25.110Z,16.89
2022-08-01T21:34:02.473Z,16.89
2022-08-01T21:36:32.297Z,16.85
2022-08-01T21:39:02.290Z,16.85
2022-08-01T21:42:03.222Z,16.84
2022-08-01T21:44:28.721Z,16.83
2022-08-01T21:47:00.201Z,16.82
2022-08-01T21:49:28.344Z,16.83
2022-08-01T21:52:12.411Z,16.83
2022-08-01T21:55:16.655Z,16.78
2022-08-01T21:57:56.325Z,16.70
2022-08-01T22:00:25.340Z,16.63
2022-08-01T22:03:19.126Z,16.52
2022-08-01T22:05:51.469Z,16.46
2022-08-01T22:08:35.138Z,16.44
2022-08-01T22:11:08.732Z,16.41
2022-08-01T22:13:37.687Z,16.41
2022-08-01T22:16:06.537Z,16.39
2022-08-01T22:18:36.324Z,16.37
2022-08-01T22:21:04.884Z,16.37
2022-08-01T22:23:36.989Z,16.39
2022-08-01T22:26:10.669Z,16.36
2022-08-01T22:28:40.531Z,16.33
2022-08-01T22:31:08.775Z,16.31
2022-08-01T22:33:39.271Z,16.24
2022-08-01T22:36:07.718Z,16.19
2022-08-01T22:38:35.904Z,16.15
2022-08-01T22:41:06.291Z,16.12
2022-08-01T22:43:59.463Z,16.11
2022-08-01T22:46:51.584Z,16.08
2022-08-01T22:49:50.349Z,16.04
2022-08-01T22:52:20.947Z,16.04
2022-08-01T22:54:51.830Z,16.05
2022-08-01T22:57:51.138Z,16.06
2022-08-01T23:00:19.813Z,16.07
2022-08-01T23:02:54.667Z,16.06
2022-08-01T23:05:25.293Z,16.03
2022-08-01T23:07:55.623Z,16.03
2022-08-01T23:10:26.267Z,16.04
2022-08-01T23:12:56.065Z,16.03
2022-08-01T23:15:25.222Z,16.01
2022-08-01T23:17:55.004Z,15.95
2022-08-01T23:20:23.947Z,15.89
2022-08-01T23:22:53.812Z,15.88
2022-08-01T23:25:23.553Z,15.90
2022-08-01T23:28:05.557Z,15.91
2022-08-01T23:30:35.785Z,15.90
2022-08-01T23:33:04.667Z,15.90
2022-08-01T23:35:38.675Z,15.90
2022-08-01T23:38:10.171Z,15.92
2022-08-01T23:40:38.659Z,15.93
2022-08-01T23:43:16.637Z,15.93
2022-08-01T23:46:04.695Z,15.93
2022-08-01T23:48:35.291Z,15.90
2022-08-01T23:51:05.263Z,15.86
2022-08-01T23:53:35.335Z,15.84
2022-08-01T23:56:06.670Z,15.81
2022-08-01T23:58:34.927Z,15.78
